createdAt,value
2023-04-04T00:02:01.835Z,95937.75
2023-04-04T00:05:45.067Z,95922.47
2023-04-04T00:09:27.706Z,95920.81
2023-04-04T00:13:10.453Z,95919.06
2023-04-04T00:16:54.524Z,95923.03
2023-04-04T00:20:37.360Z,95921.13
2023-04-04T00:24:20.133Z,95914.03
2023-04-04T00:28:03.190Z,95915.13
2023-04-04T00:31:45.961Z,95907.22
2023-04-04T00:35:29.968Z,95903.41
2023-04-04T00:39:12.675Z,95897.81
2023-04-04T00:42:55.595Z,95893.03
2023-04-04T00:46:38.335Z,95886.22
2023-04-04T00:50:21.052Z,95896.31
2023-04-04T00:54:05.431Z,95883.50
2023-04-04T00:57:48.247Z,95882.41
2023-04-04T01:01:31.583Z,95879.94
2023-04-04T01:05:14.358Z,95874.06
2023-04-04T01:08:57.380Z,95876.66
2023-04-04T01:12:41.674Z,95868.88
2023-04-04T01:16:26.972Z,95873.66
2023-04-04T01:20:13.353Z,95880.19
2023-04-04T01:24:01.327Z,95870.75
2023-04-04T01:27:45.713Z,95873.59
2023-04-04T01:31:30.633Z,95858.69
2023-04-04T01:35:21.561Z,95857.50
2023-04-04T01:39:09.757Z,95853.06
2023-04-04T01:42:53.963Z,95850.31
2023-04-04T01:46:37.174Z,95851.38
2023-04-04T01:50:19.984Z,95855.19
2023-04-04T01:54:02.614Z,95850.53
2023-04-04T01:57:46.096Z,95852.41
2023-04-04T02:01:30.235Z,95843.72
2023-04-04T02:05:13.035Z,95848.34
2023-04-04T02:08:56.204Z,95851.22
2023-04-04T02:12:39.987Z,95847.66
2023-04-04T02:16:22.702Z,95847.66
2023-04-04T02:20:08.351Z,95848.63
2023-04-04T02:23:51.139Z,95842.88
2023-04-04T02:27:34.066Z,95840.91
2023-04-04T02:31:17.260Z,95837.38
2023-04-04T02:34:59.984Z,95841.69
2023-04-04T02:38:43.984Z,95840.31
2023-04-04T02:42:26.624Z,95830.66
2023-04-04T02:46:20.583Z,95831.34
2023-04-04T02:50:04.210Z,95831.59
2023-04-04T02:53:48.248Z,95831.81
2023-04-04T02:57:30.918Z,95838.06
2023-04-04T03:01:13.570Z,95822.28
2023-04-04T03:04:56.208Z,95832.91
2023-04-04T03:08:38.887Z,95827.53
2023-04-04T03:12:22.881Z,95822.31
2023-04-04T03:16:07.644Z,95829.75
2023-04-04T03:19:50.362Z,95815.63
2023-04-04T03:23:33.008Z,95829.38
2023-04-04T03:27:16.198Z,95831.16
2023-04-04T03:31:04.676Z,95828.19
2023-04-04T03:34:47.453Z,95826.41
2023-04-04T03:38:30.218Z,95819.47
2023-04-04T03:42:13.119Z,95827.09
2023-04-04T03:45:55.848Z,95825.47
2023-04-04T03:49:39.886Z,95831.97
2023-04-04T03:53:22.690Z,95842.31
2023-04-04T03:57:05.568Z,95836.78
2023-04-04T04:00:48.230Z,95833.25
2023-04-04T04:04:31.027Z,95832.81
2023-04-04T04:08:15.051Z,95836.84
2023-04-04T04:11:57.758Z,95846.69
2023-04-04T04:15:40.661Z,95845.03
2023-04-04T04:19:23.513Z,95843.84
2023-04-04T04:23:06.141Z,95847.91
2023-04-04T04:26:50.428Z,95846.25
2023-04-04T04:30:33.117Z,95847.78
2023-04-04T04:34:15.835Z,95849.78
2023-04-04T04:37:58.499Z,95858.75
2023-04-04T04:41:41.532Z,95852.69
2023-04-04T04:45:26.206Z,95853.19
2023-04-04T04:49:09.072Z,95856.72
2023-04-04T04:52:52.422Z,95857.19
2023-04-04T04:56:35.136Z,95854.16
2023-04-04T05:00:19.002Z,95856.06
2023-04-04T05:04:03.185Z,95858.41
2023-04-04T05:07:47.073Z,95862.13
2023-04-04T05:11:29.717Z,95868.00
2023-04-04T05:15:12.739Z,95874.34
2023-04-04T05:18:55.404Z,95869.88
2023-04-04T05:22:43.903Z,95872.72
2023-04-04T05:26:26.556Z,95868.22
2023-04-04T05:30:10.200Z,95880.53
2023-04-04T05:33:53.879Z,95882.78
2023-04-04T05:37:41.198Z,95875.25
2023-04-04T05:41:23.824Z,95873.34
2023-04-04T05:45:07.603Z,95885.34
2023-04-04T05:48:51.987Z,95875.25
2023-04-04T05:52:34.664Z,95884.03
2023-04-04T05:56:18.793Z,95888.13
2023-04-04T06:00:01.468Z,95883.69
2023-04-04T06:03:44.084Z,95887.72
2023-04-04T06:07:26.805Z,95874.31
2023-04-04T06:11:09.460Z,95887.19
2023-04-04T06:14:53.502Z,95893.03
2023-04-04T06:18:36.140Z,95879.75
2023-04-04T06:22:21.576Z,95875.72
2023-04-04T06:26:05.880Z,95886.03
2023-04-04T06:29:49.101Z,95888.91
2023-04-04T06:33:33.040Z,95872.91
2023-04-04T06:37:18.256Z,95870.06
2023-04-04T06:41:00.953Z,95880.59
2023-04-04T06:44:43.659Z,95876.97
2023-04-04T06:48:28.436Z,95875.75
2023-04-04T06:52:12.526Z,95868.19
2023-04-04T06:55:58.033Z,95873.47
2023-04-04T06:59:41.147Z,95870.06
2023-04-04T07:03:24.780Z,95866.31
2023-04-04T07:07:07.484Z,95868.38
2023-04-04T07:10:51.562Z,95870.44
2023-04-04T07:14:34.220Z,95865.69
2023-04-04T07:18:16.936Z,95873.06
2023-04-04T07:21:59.605Z,95876.09
2023-04-04T07:25:44.967Z,95872.41
2023-04-04T07:29:29.212Z,95879.53
2023-04-04T07:33:11.998Z,95868.13
2023-04-04T07:36:55.185Z,95868.41
2023-04-04T07:40:38.182Z,95874.47
2023-04-04T07:44:21.158Z,95867.66
2023-04-04T07:48:05.726Z,95863.03
2023-04-04T07:51:48.977Z,95869.84
2023-04-04T07:55:31.631Z,95854.69
2023-04-04T07:59:14.250Z,95861.13
2023-04-04T08:03:01.574Z,95855.41
2023-04-04T08:06:45.724Z,95859.34
2023-04-04T08:10:28.359Z,95861.94
2023-04-04T08:14:11.910Z,95860.84
2023-04-04T08:17:56.092Z,95851.75
2023-04-04T08:21:38.882Z,95861.13
2023-04-04T08:25:23.024Z,95851.31
2023-04-04T08:29:05.857Z,95860.28
2023-04-04T08:32:48.728Z,95851.81
2023-04-04T08:36:31.432Z,95864.06
2023-04-04T08:40:14.417Z,95857.44
2023-04-04T08:43:59.233Z,95867.53
2023-04-04T08:47:42.973Z,95875.19
2023-04-04T08:51:27.267Z,95866.94
2023-04-04T08:55:11.169Z,95868.84
2023-04-04T08:58:53.856Z,95868.41
2023-04-04T09:02:43.456Z,95869.44
2023-04-04T09:06:28.053Z,95865.56
2023-04-04T09:10:12.075Z,95868.53
2023-04-04T09:13:56.004Z,95858.81
2023-04-04T09:17:40.094Z,95874.31
2023-04-04T09:21:22.737Z,95851.34
2023-04-04T09:25:09.473Z,95861.91
2023-04-04T09:28:53.849Z,95872.09
2023-04-04T09:32:36.516Z,95878.03
2023-04-04T09:36:20.998Z,95874.91
2023-04-04T09:40:08.311Z,95868.22
2023-04-04T09:43:51.976Z,95871.78
2023-04-04T09:47:36.424Z,95874.00
2023-04-04T09:51:20.506Z,95877.56
2023-04-04T09:55:04.375Z,95886.06
2023-04-04T09:59:00.777Z,95873.13
2023-04-04T10:02:48.678Z,95879.38
2023-04-04T10:06:33.244Z,95879.66
2023-04-04T10:10:16.554Z,95875.34
2023-04-04T10:13:59.399Z,95883.31
2023-04-04T10:17:44.016Z,95886.81
2023-04-04T10:21:28.202Z,95874.22
2023-04-04T10:25:12.359Z,95874.44
2023-04-04T10:28:58.263Z,95880.81
2023-04-04T10:32:48.504Z,95881.13
2023-04-04T10:36:32.414Z,95884.25
2023-04-04T10:40:19.455Z,95881.44
2023-04-04T10:44:10.808Z,95873.94
2023-04-04T10:47:54.200Z,95868.16
2023-04-04T10:51:45.142Z,95873.66
2023-04-04T10:55:39.092Z,95869.38
2023-04-04T10:59:22.314Z,95878.78
2023-04-04T11:03:05.614Z,95877.13
2023-04-04T11:07:16.554Z,95866.72
2023-04-04T11:11:05.010Z,95859.63
2023-04-04T11:14:58.103Z,95863.53
2023-04-04T11:18:47.405Z,95857.34
2023-04-04T11:22:30.462Z,95859.25
2023-04-04T11:26:14.638Z,95853.19
2023-04-04T11:29:59.276Z,95844.41
2023-04-04T11:33:56.069Z,95842.81
2023-04-04T11:37:44.673Z,95843.00
2023-04-04T11:41:44.984Z,95843.25
2023-04-04T11:45:27.895Z,95840.75
2023-04-04T11:49:11.318Z,95839.38
2023-04-04T11:52:54.748Z,95847.19
2023-04-04T11:56:39.032Z,95845.56
2023-04-04T12:00:31.787Z,95842.25
2023-04-04T12:04:16.745Z,95842.38
2023-04-04T12:08:01.801Z,95831.41
2023-04-04T12:11:46.826Z,95829.34
2023-04-04T12:15:31.391Z,95831.63
2023-04-04T12:19:14.072Z,95844.41
2023-04-04T12:22:56.977Z,95832.41
2023-04-04T12:26:40.868Z,95828.06
2023-04-04T12:30:25.364Z,95819.88
2023-04-04T12:34:08.472Z,95821.47
2023-04-04T12:38:01.526Z,95834.50
2023-04-04T12:41:53.273Z,95823.97
2023-04-04T12:45:41.315Z,95826.09
2023-04-04T12:49:24.291Z,95815.50
2023-04-04T12:53:23.999Z,95825.19
2023-04-04T12:57:15.313Z,95817.38
2023-04-04T13:01:01.240Z,95813.59
2023-04-04T13:04:46.434Z,95812.13
2023-04-04T13:08:29.032Z,95809.13
2023-04-04T13:12:12.824Z,95808.38
2023-04-04T13:15:55.416Z,95811.91
2023-04-04T13:19:39.436Z,95801.47
2023-04-04T13:23:22.488Z,95813.38
2023-04-04T13:27:05.250Z,95804.66
2023-04-04T13:30:49.240Z,95798.47
2023-04-04T13:34:32.793Z,95786.25
2023-04-04T13:38:17.653Z,95777.16
2023-04-04T13:42:02.080Z,95782.75
2023-04-04T13:45:45.011Z,95780.44
2023-04-04T13:49:27.703Z,95782.31
2023-04-04T13:53:10.952Z,95782.13
2023-04-04T13:56:55.836Z,95770.28
2023-04-04T14:00:38.554Z,95781.31
2023-04-04T14:04:24.082Z,95787.06
2023-04-04T14:08:08.035Z,95784.66
2023-04-04T14:11:50.669Z,95778.47
2023-04-04T14:15:34.685Z,95776.84
2023-04-04T14:19:17.316Z,95782.41
2023-04-04T14:22:59.947Z,95775.50
2023-04-04T14:26:42.661Z,95766.81
2023-04-04T14:30:25.639Z,95772.56
2023-04-04T14:34:10.383Z,95771.22
2023-04-04T14:37:53.970Z,95773.97
2023-04-04T14:41:37.870Z,95778.97
2023-04-04T14:45:20.587Z,95778.63
2023-04-04T14:49:05.698Z,95769.03
2023-04-04T14:52:52.755Z,95770.50
2023-04-04T14:56:36.212Z,95763.66
2023-04-04T15:00:20.754Z,95770.41
2023-04-04T15:04:03.737Z,95770.16
2023-04-04T15:07:47.344Z,95776.53
2023-04-04T15:11:31.344Z,95782.81
2023-04-04T15:15:14.172Z,95772.91
2023-04-04T15:18:57.155Z,95767.38
2023-04-04T15:22:41.374Z,95769.84
2023-04-04T15:26:24.639Z,95775.16
2023-04-04T15:30:10.127Z,95769.53
2023-04-04T15:33:55.065Z,95767.88
2023-04-04T15:37:37.721Z,95773.94
2023-04-04T15:41:20.461Z,95768.00
2023-04-04T15:45:03.644Z,95770.00
2023-04-04T15:48:48.234Z,95759.31
2023-04-04T15:52:30.863Z,95754.88
2023-04-04T15:56:14.224Z,95761.78
2023-04-04T15:59:56.995Z,95770.66
2023-04-04T16:03:39.818Z,95761.31
2023-04-04T16:07:23.962Z,95762.19
2023-04-04T16:11:06.868Z,95762.22
2023-04-04T16:14:49.758Z,95753.72
2023-04-04T16:18:32.401Z,95758.00
2023-04-04T16:22:15.471Z,95766.00
2023-04-04T16:25:59.503Z,95758.53
2023-04-04T16:29:42.134Z,95758.19
2023-04-04T16:33:24.871Z,95765.66
2023-04-04T16:37:09.614Z,95750.41
2023-04-04T16:40:52.290Z,95755.16
2023-04-04T16:44:36.577Z,95747.34
2023-04-04T16:48:19.222Z,95745.28
2023-04-04T16:52:01.857Z,95744.59
2023-04-04T16:55:44.483Z,95746.97
2023-04-04T16:59:27.779Z,95739.28
2023-04-04T17:03:12.016Z,95739.63
2023-04-04T17:06:54.764Z,95741.56
2023-04-04T17:10:40.349Z,95746.44
2023-04-04T17:14:23.220Z,95745.94
2023-04-04T17:18:06.205Z,95751.91
2023-04-04T17:21:51.450Z,95752.03
2023-04-04T17:25:34.047Z,95748.63
2023-04-04T17:29:17.371Z,95747.81
2023-04-04T17:33:00.171Z,95747.38
2023-04-04T17:36:43.773Z,95753.75
2023-04-04T17:40:27.847Z,95746.19
2023-04-04T17:44:10.532Z,95742.28
2023-04-04T17:47:53.438Z,95745.84
2023-04-04T17:51:36.170Z,95750.25
2023-04-04T17:55:18.834Z,95749.91
2023-04-04T17:59:05.255Z,95751.97
2023-04-04T18:02:48.130Z,95746.25
2023-04-04T18:06:30.965Z,95749.19
2023-04-04T18:10:13.615Z,95744.28
2023-04-04T18:13:56.229Z,95755.81
2023-04-04T18:17:41.172Z,95753.84
2023-04-04T18:21:23.820Z,95750.41
2023-04-04T18:25:07.380Z,95746.94
2023-04-04T18:28:50.037Z,95761.22
2023-04-04T18:32:32.712Z,95756.66
2023-04-04T18:36:16.964Z,95747.97
2023-04-04T18:39:59.649Z,95760.84
2023-04-04T18:43:42.391Z,95758.75
2023-04-04T18:47:25.030Z,95765.94
2023-04-04T18:51:07.914Z,95763.41
2023-04-04T18:54:52.129Z,95768.00
2023-04-04T18:58:37.423Z,95765.09
2023-04-04T19:02:20.041Z,95773.03
2023-04-04T19:06:02.997Z,95768.28
2023-04-04T19:09:46.029Z,95770.25
2023-04-04T19:13:30.045Z,95764.38
2023-04-04T19:17:15.423Z,95767.78
2023-04-04T19:20:58.988Z,95772.16
2023-04-04T19:24:42.275Z,95767.06
2023-04-04T19:28:25.068Z,95767.50
2023-04-04T19:32:14.092Z,95768.78
2023-04-04T19:35:59.023Z,95764.84
2023-04-04T19:39:43.656Z,95765.53
2023-04-04T19:43:27.066Z,95764.56
2023-04-04T19:47:12.120Z,95763.38
2023-04-04T19:50:54.785Z,95768.13
2023-04-04T19:54:41.531Z,95757.72
2023-04-04T19:58:24.573Z,95753.78
2023-04-04T20:02:08.122Z,95759.28
2023-04-04T20:06:13.314Z,95755.88
2023-04-04T20:09:59.599Z,95754.53
2023-04-04T20:13:42.930Z,95748.81
2023-04-04T20:17:25.634Z,95761.81
2023-04-04T20:21:11.633Z,95764.03
2023-04-04T20:24:54.792Z,95761.06
2023-04-04T20:28:38.563Z,95756.16
2023-04-04T20:32:21.250Z,95746.34
2023-04-04T20:36:13.630Z,95756.38
2023-04-04T20:39:58.710Z,95762.00
2023-04-04T20:43:42.294Z,95748.66
2023-04-04T20:47:42.032Z,95764.09
2023-04-04T20:51:30.884Z,95768.63
2023-04-04T20:55:13.673Z,95760.44
2023-04-04T20:58:56.400Z,95768.53
2023-04-04T21:02:39.842Z,95764.31
2023-04-04T21:06:29.475Z,95758.44
2023-04-04T21:10:25.799Z,95768.47
2023-04-04T21:14:08.463Z,95760.28
2023-04-04T21:17:51.256Z,95769.34
2023-04-04T21:21:36.478Z,95769.34
2023-04-04T21:25:26.956Z,95759.22
2023-04-04T21:29:16.658Z,95766.63
2023-04-04T21:32:59.382Z,95762.81
2023-04-04T21:36:43.805Z,95755.47
2023-04-04T21:40:26.696Z,95768.06
2023-04-04T21:44:10.461Z,95759.91
2023-04-04T21:47:53.106Z,95763.75
2023-04-04T21:51:35.978Z,95767.88
2023-04-04T21:55:21.475Z,95768.78
2023-04-04T21:59:05.457Z,95765.13
2023-04-04T22:02:48.175Z,95763.88
2023-04-04T22:06:31.068Z,95761.97
2023-04-04T22:10:13.783Z,95756.34
2023-04-04T22:14:04.502Z,95758.13
2023-04-04T22:17:50.953Z,95764.41
2023-04-04T22:21:36.589Z,95755.81
2023-04-04T22:25:19.857Z,95753.50
2023-04-04T22:29:06.152Z,95746.94
2023-04-04T22:32:48.815Z,95756.66
2023-04-04T22:36:31.529Z,95749.84
2023-04-04T22:40:14.253Z,95735.78
2023-04-04T22:43:57.176Z,95748.09
2023-04-04T22:47:47.185Z,95743.75
2023-04-04T22:51:29.874Z,95739.25
2023-04-04T22:55:12.860Z,95739.25
2023-04-04T22:58:55.574Z,95737.38
2023-04-04T23:02:38.805Z,95742.16
2023-04-04T23:06:23.644Z,95734.75
2023-04-04T23:10:07.353Z,95737.50
2023-04-04T23:13:49.985Z,95738.06
2023-04-04T23:17:33.173Z,95735.06
2023-04-04T23:21:15.874Z,95721.97
2023-04-04T23:24:59.936Z,95727.16
2023-04-04T23:28:42.606Z,95723.63
2023-04-04T23:32:25.226Z,95720.06
2023-04-04T23:36:08.513Z,95721.69
2023-04-04T23:39:54.048Z,95721.69
2023-04-04T23:43:38.637Z,95722.25
2023-04-04T23:47:21.497Z,95718.31
2023-04-04T23:51:04.345Z,95721.84
2023-04-04T23:54:50.026Z,95714.63
2023-04-04T23:58:32.624Z,95709.44
